createdAt,value
2023-04-16T00:01:27.762Z,9.00
2023-04-16T00:03:55.011Z,9.10
2023-04-16T00:06:23.229Z,9.10
2023-04-16T00:08:51.463Z,9.00
2023-04-16T00:11:18.138Z,9.00
2023-04-16T00:13:44.761Z,9.00
2023-04-16T00:16:11.388Z,9.00
2023-04-16T00:18:38.028Z,9.00
2023-04-16T00:21:04.726Z,9.00
2023-04-16T00:23:31.410Z,9.00
2023-04-16T00:25:59.857Z,9.10
2023-04-16T00:28:27.574Z,9.10
2023-04-16T00:30:54.905Z,9.10
2023-04-16T00:33:21.707Z,9.10
2023-04-16T00:35:49.115Z,9.00
2023-04-16T00:38:16.060Z,9.10
2023-04-16T00:40:42.723Z,9.10
2023-04-16T00:43:09.351Z,9.00
2023-04-16T00:45:36.631Z,9.00
2023-04-16T00:48:04.744Z,9.00
2023-04-16T00:50:31.639Z,9.00
2023-04-16T00:52:58.324Z,9.00
2023-04-16T00:55:25.993Z,9.00
2023-04-16T00:57:53.264Z,9.00
2023-04-16T01:00:21.355Z,9.00
2023-04-16T01:02:48.234Z,8.90
2023-04-16T01:05:14.958Z,9.00
2023-04-16T01:07:41.568Z,9.00
2023-04-16T01:10:08.449Z,9.00
2023-04-16T01:12:35.207Z,9.00
2023-04-16T01:15:02.089Z,9.00
2023-04-16T01:17:28.793Z,9.00
2023-04-16T01:19:59.756Z,9.00
2023-04-16T01:22:28.151Z,9.00
2023-04-16T01:24:54.837Z,9.00
2023-04-16T01:27:21.434Z,9.00
2023-04-16T01:29:48.096Z,8.90
2023-04-16T01:32:20.496Z,8.90
2023-04-16T01:34:47.360Z,8.90
2023-04-16T01:37:14.313Z,8.90
2023-04-16T01:39:40.940Z,8.90
2023-04-16T01:42:08.197Z,8.90
2023-04-16T01:44:34.810Z,8.90
2023-04-16T01:47:01.643Z,8.80
2023-04-16T01:49:28.966Z,8.80
2023-04-16T01:51:55.738Z,8.80
2023-04-16T01:54:22.331Z,8.80
2023-04-16T01:56:48.909Z,8.80
2023-04-16T01:59:15.521Z,8.80
2023-04-16T02:01:42.533Z,8.70
2023-04-16T02:04:10.075Z,8.70
2023-04-16T02:06:36.766Z,8.70
2023-04-16T02:09:03.733Z,8.70
2023-04-16T02:11:30.878Z,8.70
2023-04-16T02:13:57.700Z,8.60
2023-04-16T02:16:26.480Z,8.60
2023-04-16T02:18:58.403Z,8.60
2023-04-16T02:21:27.566Z,8.60
2023-04-16T02:23:54.257Z,8.60
2023-04-16T02:26:26.574Z,8.60
2023-04-16T02:28:55.997Z,8.60
2023-04-16T02:31:28.675Z,8.50
2023-04-16T02:33:56.943Z,8.50
2023-04-16T02:36:23.690Z,8.50
2023-04-16T02:38:50.298Z,8.50
2023-04-16T02:41:17.061Z,8.40
2023-04-16T02:43:43.768Z,8.40
2023-04-16T02:46:10.531Z,8.40
2023-04-16T02:48:37.230Z,8.30
2023-04-16T02:51:03.867Z,8.30
2023-04-16T02:53:30.832Z,8.30
2023-04-16T02:55:57.689Z,8.20
2023-04-16T02:58:25.986Z,8.20
2023-04-16T03:00:54.156Z,8.20
2023-04-16T03:03:21.296Z,8.20
2023-04-16T03:05:48.508Z,8.10
2023-04-16T03:08:16.560Z,8.10
2023-04-16T03:10:43.242Z,8.00
2023-04-16T03:13:09.925Z,8.00
2023-04-16T03:15:36.638Z,8.00
2023-04-16T03:18:03.366Z,8.00
2023-04-16T03:20:30.239Z,8.00
2023-04-16T03:22:57.202Z,8.00
2023-04-16T03:25:23.819Z,8.00
2023-04-16T03:27:51.318Z,8.00
2023-04-16T03:30:18.422Z,8.00
2023-04-16T03:32:45.194Z,7.90
2023-04-16T03:35:12.697Z,7.90
2023-04-16T03:37:39.415Z,7.90
2023-04-16T03:40:07.256Z,7.90
2023-04-16T03:42:34.372Z,7.80
2023-04-16T03:45:01.106Z,7.80
2023-04-16T03:47:28.022Z,7.80
2023-04-16T03:49:58.295Z,7.80
2023-04-16T03:52:24.921Z,7.80
2023-04-16T03:54:52.705Z,7.80
2023-04-16T03:57:26.250Z,7.80
2023-04-16T03:59:56.886Z,7.80
2023-04-16T04:02:25.801Z,7.80
2023-04-16T04:04:52.656Z,7.80
2023-04-16T04:07:19.342Z,7.80
2023-04-16T04:09:46.031Z,7.70
2023-04-16T04:12:13.470Z,7.70
2023-04-16T04:14:41.727Z,7.70
2023-04-16T04:17:08.994Z,7.60
2023-04-16T04:19:35.833Z,7.70
2023-04-16T04:22:03.682Z,7.60
2023-04-16T04:24:30.501Z,7.60
2023-04-16T04:26:58.149Z,7.60
2023-04-16T04:29:24.992Z,7.50
2023-04-16T04:31:51.923Z,7.50
2023-04-16T04:34:19.058Z,7.50
2023-04-16T04:36:45.921Z,7.50
2023-04-16T04:39:13.987Z,7.40
2023-04-16T04:41:43.188Z,7.40
2023-04-16T04:44:10.016Z,7.40
2023-04-16T04:46:36.688Z,7.40
2023-04-16T04:49:03.379Z,7.40
2023-04-16T04:51:31.771Z,7.40
2023-04-16T04:53:58.651Z,7.40
2023-04-16T04:56:25.542Z,7.40
2023-04-16T04:58:52.289Z,7.40
2023-04-16T05:01:20.355Z,7.40
2023-04-16T05:03:47.148Z,7.40
2023-04-16T05:06:13.862Z,7.40
2023-04-16T05:08:40.660Z,7.40
2023-04-16T05:11:07.260Z,7.40
2023-04-16T05:13:33.904Z,7.40
2023-04-16T05:16:00.631Z,7.40
2023-04-16T05:18:27.637Z,7.40
2023-04-16T05:20:54.217Z,7.40
2023-04-16T05:23:20.809Z,7.40
2023-04-16T05:25:47.412Z,7.40
2023-04-16T05:28:13.988Z,7.30
2023-04-16T05:30:40.614Z,7.40
2023-04-16T05:33:07.243Z,7.40
2023-04-16T05:35:34.977Z,7.40
2023-04-16T05:38:01.553Z,7.40
2023-04-16T05:40:28.221Z,7.40
2023-04-16T05:42:54.787Z,7.40
2023-04-16T05:45:21.470Z,7.40
2023-04-16T05:47:48.151Z,7.50
2023-04-16T05:50:14.986Z,7.40
2023-04-16T05:52:41.583Z,7.40
2023-04-16T05:55:08.560Z,7.50
2023-04-16T05:57:35.307Z,7.50
2023-04-16T06:00:01.919Z,7.50
2023-04-16T06:02:39.142Z,7.50
2023-04-16T06:05:06.241Z,7.50
2023-04-16T06:07:32.851Z,7.50
2023-04-16T06:09:59.437Z,7.50
2023-04-16T06:12:26.005Z,7.50
2023-04-16T06:14:52.656Z,7.60
2023-04-16T06:17:19.481Z,7.60
2023-04-16T06:19:46.231Z,7.60
2023-04-16T06:22:12.900Z,7.60
2023-04-16T06:24:39.572Z,7.60
2023-04-16T06:27:06.191Z,7.70
2023-04-16T06:29:40.375Z,7.70
2023-04-16T06:32:08.801Z,7.80
2023-04-16T06:34:35.822Z,7.80
2023-04-16T06:37:02.464Z,7.90
2023-04-16T06:39:29.048Z,8.00
2023-04-16T06:41:55.970Z,8.00
2023-04-16T06:44:22.632Z,8.00
2023-04-16T06:46:50.937Z,8.00
2023-04-16T06:49:17.574Z,8.10
2023-04-16T06:51:44.303Z,8.00
2023-04-16T06:54:11.029Z,8.00
2023-04-16T06:56:37.647Z,8.20
2023-04-16T06:59:04.473Z,8.20
2023-04-16T07:01:31.343Z,8.10
2023-04-16T07:03:58.518Z,8.20
2023-04-16T07:06:26.663Z,8.30
2023-04-16T07:08:53.304Z,8.30
2023-04-16T07:11:20.840Z,8.30
2023-04-16T07:13:47.519Z,8.40
2023-04-16T07:16:14.270Z,8.50
2023-04-16T07:18:40.966Z,8.60
2023-04-16T07:21:07.632Z,8.50
2023-04-16T07:23:34.268Z,8.50
2023-04-16T07:26:00.905Z,8.60
2023-04-16T07:28:27.745Z,8.70
2023-04-16T07:30:54.709Z,8.80
2023-04-16T07:33:21.292Z,8.90
2023-04-16T07:35:48.100Z,9.00
2023-04-16T07:38:16.212Z,9.00
2023-04-16T07:40:42.983Z,9.20
2023-04-16T07:43:10.067Z,9.20
2023-04-16T07:45:36.668Z,9.10
2023-04-16T07:48:03.447Z,9.00
2023-04-16T07:50:30.180Z,9.00
2023-04-16T07:52:56.755Z,8.90
2023-04-16T07:55:23.443Z,8.90
2023-04-16T07:57:50.261Z,8.90
2023-04-16T08:00:16.958Z,8.90
2023-04-16T08:02:44.385Z,9.10
2023-04-16T08:05:12.434Z,9.10
2023-04-16T08:07:39.123Z,9.30
2023-04-16T08:10:06.363Z,9.30
2023-04-16T08:12:33.052Z,9.30
2023-04-16T08:14:59.621Z,9.20
2023-04-16T08:17:26.230Z,9.30
2023-04-16T08:19:52.932Z,9.20
2023-04-16T08:22:19.725Z,9.20
2023-04-16T08:24:46.383Z,9.10
2023-04-16T08:27:19.261Z,9.10
2023-04-16T08:29:47.114Z,9.10
2023-04-16T08:32:13.823Z,9.20
2023-04-16T08:34:41.452Z,9.30
2023-04-16T08:37:08.048Z,9.20
2023-04-16T08:39:35.329Z,9.10
2023-04-16T08:42:05.523Z,9.20
2023-04-16T08:44:34.289Z,9.20
2023-04-16T08:47:02.158Z,9.10
2023-04-16T08:49:30.589Z,9.10
2023-04-16T08:51:57.370Z,9.10
2023-04-16T08:54:37.702Z,9.00
2023-04-16T08:57:06.984Z,8.90
2023-04-16T08:59:34.023Z,8.90
2023-04-16T09:02:01.073Z,9.00
2023-04-16T09:04:29.016Z,9.00
2023-04-16T09:06:57.348Z,9.00
2023-04-16T09:09:26.232Z,8.90
2023-04-16T09:11:54.201Z,9.00
2023-04-16T09:14:21.933Z,9.10
2023-04-16T09:16:49.634Z,9.20
2023-04-16T09:19:16.336Z,9.10
2023-04-16T09:21:46.885Z,9.10
2023-04-16T09:24:13.981Z,9.00
2023-04-16T09:26:43.360Z,9.10
2023-04-16T09:29:10.349Z,9.20
2023-04-16T09:31:37.520Z,9.50
2023-04-16T09:34:06.722Z,9.70
2023-04-16T09:36:34.078Z,9.80
2023-04-16T09:39:01.046Z,9.90
2023-04-16T09:41:32.674Z,10.10
2023-04-16T09:44:01.772Z,10.20
2023-04-16T09:46:36.522Z,10.20
2023-04-16T09:49:10.963Z,10.50
2023-04-16T09:51:40.647Z,10.60
2023-04-16T09:54:07.757Z,10.40
2023-04-16T09:56:43.263Z,10.30
2023-04-16T09:59:23.998Z,10.10
2023-04-16T10:02:14.947Z,10.00
2023-04-16T10:04:50.554Z,9.90
2023-04-16T10:07:18.500Z,9.80
2023-04-16T10:09:47.028Z,9.70
2023-04-16T10:12:14.117Z,9.80
2023-04-16T10:14:41.334Z,10.00
2023-04-16T10:17:11.461Z,10.00
2023-04-16T10:19:38.528Z,10.00
2023-04-16T10:22:06.026Z,9.90
2023-04-16T10:24:34.567Z,9.80
2023-04-16T10:27:02.048Z,9.70
2023-04-16T10:29:31.525Z,9.60
2023-04-16T10:31:59.502Z,9.60
2023-04-16T10:34:26.995Z,9.70
2023-04-16T10:36:55.387Z,9.70
2023-04-16T10:39:24.225Z,9.70
2023-04-16T10:42:06.061Z,9.70
2023-04-16T10:44:33.178Z,9.60
2023-04-16T10:46:59.969Z,9.50
2023-04-16T10:49:27.121Z,9.60
2023-04-16T10:52:03.588Z,9.60
2023-04-16T10:54:31.788Z,9.50
2023-04-16T10:57:04.389Z,9.40
2023-04-16T10:59:34.701Z,9.40
2023-04-16T11:02:13.419Z,9.30
2023-04-16T11:04:42.934Z,9.30
2023-04-16T11:07:15.478Z,9.20
2023-04-16T11:09:52.270Z,9.20
2023-04-16T11:12:23.417Z,9.20
2023-04-16T11:14:51.641Z,9.30
2023-04-16T11:17:19.908Z,9.20
2023-04-16T11:19:47.314Z,9.30
2023-04-16T11:22:17.228Z,9.30
2023-04-16T11:24:45.183Z,9.40
2023-04-16T11:27:13.713Z,9.60
2023-04-16T11:29:40.641Z,9.60
2023-04-16T11:32:07.376Z,9.60
2023-04-16T11:34:34.279Z,9.70
2023-04-16T11:37:01.221Z,9.60
2023-04-16T11:39:27.969Z,9.50
2023-04-16T11:41:55.752Z,9.40
2023-04-16T11:44:27.884Z,9.20
2023-04-16T11:46:54.819Z,9.20
2023-04-16T11:49:28.821Z,9.20
2023-04-16T11:51:56.111Z,9.30
2023-04-16T11:54:24.406Z,9.30
2023-04-16T11:56:53.096Z,9.50
2023-04-16T11:59:22.830Z,9.60
2023-04-16T12:01:55.822Z,9.70
2023-04-16T12:04:27.175Z,9.80
2023-04-16T12:07:11.686Z,9.90
2023-04-16T12:09:43.288Z,10.00
2023-04-16T12:12:30.663Z,10.00
2023-04-16T12:15:00.041Z,9.90
2023-04-16T12:17:26.765Z,9.90
2023-04-16T12:19:57.850Z,10.00
2023-04-16T12:22:49.200Z,10.10
2023-04-16T12:25:17.186Z,10.30
2023-04-16T12:27:52.745Z,10.50
2023-04-16T12:30:22.827Z,10.50
2023-04-16T12:32:52.244Z,10.60
2023-04-16T12:35:34.918Z,10.70
2023-04-16T12:38:01.681Z,10.70
2023-04-16T12:40:28.512Z,10.80
2023-04-16T12:42:55.668Z,10.80
2023-04-16T12:45:22.800Z,11.00
2023-04-16T12:47:50.403Z,11.10
2023-04-16T12:50:17.293Z,11.20
2023-04-16T12:52:44.271Z,11.40
2023-04-16T12:55:11.420Z,11.50
2023-04-16T12:57:38.115Z,11.60
2023-04-16T13:00:06.560Z,11.80
2023-04-16T13:02:33.290Z,11.80
2023-04-16T13:05:00.001Z,11.80
2023-04-16T13:07:28.074Z,11.60
2023-04-16T13:09:54.855Z,11.60
2023-04-16T13:12:21.483Z,11.60
2023-04-16T13:14:48.132Z,11.40
2023-04-16T13:17:15.169Z,11.20
2023-04-16T13:19:41.786Z,11.10
2023-04-16T13:22:09.321Z,11.10
2023-04-16T13:24:36.134Z,11.10
2023-04-16T13:27:02.958Z,11.20
2023-04-16T13:29:30.723Z,11.50
2023-04-16T13:31:57.897Z,11.70
2023-04-16T13:34:24.547Z,11.80
2023-04-16T13:36:51.208Z,11.80
2023-04-16T13:39:18.145Z,11.70
2023-04-16T13:41:44.806Z,11.80
2023-04-16T13:44:11.479Z,11.70
2023-04-16T13:46:38.293Z,11.60
2023-04-16T13:49:04.901Z,11.70
2023-04-16T13:51:32.025Z,11.90
2023-04-16T13:53:58.739Z,12.10
2023-04-16T13:56:25.498Z,12.10
2023-04-16T13:58:52.292Z,12.10
2023-04-16T14:01:19.369Z,12.10
2023-04-16T14:03:46.479Z,12.10
2023-04-16T14:06:13.716Z,11.90
2023-04-16T14:08:40.529Z,11.90
2023-04-16T14:11:07.575Z,11.70
2023-04-16T14:13:34.288Z,11.80
2023-04-16T14:16:01.034Z,11.80
2023-04-16T14:18:27.791Z,11.90
2023-04-16T14:20:54.477Z,11.70
2023-04-16T14:23:21.515Z,11.60
2023-04-16T14:25:48.571Z,11.50
2023-04-16T14:28:15.980Z,11.60
2023-04-16T14:30:42.633Z,11.60
2023-04-16T14:33:09.316Z,11.90
2023-04-16T14:35:35.982Z,12.10
2023-04-16T14:38:02.940Z,12.10
2023-04-16T14:40:29.893Z,12.10
2023-04-16T14:42:56.512Z,12.10
2023-04-16T14:45:25.320Z,12.10
2023-04-16T14:47:51.982Z,12.00
2023-04-16T14:50:18.644Z,12.00
2023-04-16T14:52:45.320Z,12.00
2023-04-16T14:55:11.974Z,12.00
2023-04-16T14:57:38.967Z,12.00
2023-04-16T15:00:13.281Z,11.90
2023-04-16T15:02:40.329Z,11.80
2023-04-16T15:05:09.719Z,11.70
2023-04-16T15:07:37.043Z,11.70
2023-04-16T15:10:04.300Z,11.60
2023-04-16T15:12:31.032Z,11.60
2023-04-16T15:14:57.696Z,11.60
2023-04-16T15:17:24.424Z,11.60
2023-04-16T15:19:52.136Z,11.70
2023-04-16T15:22:19.030Z,11.80
2023-04-16T15:24:45.791Z,11.90
2023-04-16T15:27:13.847Z,12.00
2023-04-16T15:29:40.512Z,12.00
2023-04-16T15:32:07.199Z,11.90
2023-04-16T15:34:33.825Z,12.00
2023-04-16T15:37:00.601Z,12.10
2023-04-16T15:39:27.263Z,12.10
2023-04-16T15:42:01.218Z,12.30
2023-04-16T15:44:30.915Z,12.30
2023-04-16T15:46:57.773Z,12.50
2023-04-16T15:49:24.762Z,12.50
2023-04-16T15:51:52.018Z,12.50
2023-04-16T15:54:18.878Z,12.50
2023-04-16T15:56:46.612Z,12.30
2023-04-16T15:59:13.566Z,12.20
2023-04-16T16:01:40.839Z,12.10
2023-04-16T16:04:08.179Z,12.10
2023-04-16T16:06:35.626Z,12.00
2023-04-16T16:09:02.292Z,11.90
2023-04-16T16:11:28.929Z,11.90
2023-04-16T16:13:55.555Z,12.00
2023-04-16T16:16:22.318Z,11.90
2023-04-16T16:18:48.998Z,12.00
2023-04-16T16:21:16.046Z,12.00
2023-04-16T16:23:42.695Z,12.00
2023-04-16T16:26:09.429Z,12.10
2023-04-16T16:28:38.840Z,12.00
2023-04-16T16:31:06.819Z,12.00
2023-04-16T16:33:33.515Z,12.00
2023-04-16T16:36:00.198Z,12.00
2023-04-16T16:38:26.966Z,11.80
2023-04-16T16:40:53.555Z,11.80
2023-04-16T16:43:20.579Z,11.70
2023-04-16T16:45:47.255Z,11.70
2023-04-16T16:48:13.924Z,11.60
2023-04-16T16:50:40.550Z,11.60
2023-04-16T16:53:07.366Z,11.60
2023-04-16T16:55:35.482Z,11.50
2023-04-16T16:58:02.587Z,11.40
2023-04-16T17:00:29.223Z,11.30
2023-04-16T17:02:56.172Z,11.30
2023-04-16T17:05:22.857Z,11.30
2023-04-16T17:07:49.543Z,11.30
2023-04-16T17:10:20.185Z,11.30
2023-04-16T17:12:51.030Z,11.20
2023-04-16T17:15:21.257Z,11.20
2023-04-16T17:17:48.568Z,11.20
2023-04-16T17:20:15.592Z,11.10
2023-04-16T17:22:42.545Z,11.10
2023-04-16T17:25:09.924Z,11.10
2023-04-16T17:27:36.720Z,11.10
2023-04-16T17:30:05.342Z,11.10
2023-04-16T17:32:33.079Z,11.00
2023-04-16T17:35:03.858Z,11.00
2023-04-16T17:37:30.525Z,11.00
2023-04-16T17:39:57.139Z,10.90
2023-04-16T17:42:24.532Z,10.90
2023-04-16T17:44:51.414Z,10.90
2023-04-16T17:47:18.126Z,10.90
2023-04-16T17:49:44.761Z,10.80
2023-04-16T17:52:11.401Z,10.80
2023-04-16T17:54:38.038Z,10.80
2023-04-16T17:57:04.709Z,10.80
2023-04-16T17:59:31.396Z,10.70
2023-04-16T18:01:58.180Z,10.70
2023-04-16T18:04:25.072Z,10.70
2023-04-16T18:06:51.811Z,10.70
2023-04-16T18:09:19.437Z,10.60
2023-04-16T18:11:46.116Z,10.60
2023-04-16T18:14:19.747Z,10.50
2023-04-16T18:16:47.486Z,10.50
2023-04-16T18:19:14.365Z,10.50
2023-04-16T18:21:41.093Z,10.40
2023-04-16T18:24:07.826Z,10.50
2023-04-16T18:26:36.217Z,10.50
2023-04-16T18:29:03.998Z,10.50
2023-04-16T18:31:31.139Z,10.40
2023-04-16T18:33:58.502Z,10.40
2023-04-16T18:36:26.646Z,10.40
2023-04-16T18:39:15.890Z,10.40
2023-04-16T18:41:41.601Z,10.40
2023-04-16T18:44:10.568Z,10.40
2023-04-16T18:46:37.286Z,10.20
2023-04-16T18:49:03.956Z,10.30
2023-04-16T18:51:30.682Z,10.20
2023-04-16T18:53:57.297Z,10.20
2023-04-16T18:56:24.004Z,10.20
2023-04-16T18:58:50.620Z,10.20
2023-04-16T19:01:17.872Z,10.20
2023-04-16T19:03:45.397Z,10.10
2023-04-16T19:06:12.061Z,10.10
2023-04-16T19:08:38.814Z,10.10
2023-04-16T19:11:05.465Z,10.00
2023-04-16T19:13:32.291Z,10.00
2023-04-16T19:16:00.802Z,10.00
2023-04-16T19:18:27.610Z,10.00
2023-04-16T19:21:01.189Z,10.00
2023-04-16T19:23:28.601Z,10.00
2023-04-16T19:25:58.581Z,10.00
2023-04-16T19:28:25.733Z,10.00
2023-04-16T19:30:53.370Z,10.00
2023-04-16T19:33:20.366Z,10.00
2023-04-16T19:35:47.558Z,10.00
2023-04-16T19:38:14.373Z,9.90
2023-04-16T19:40:44.821Z,9.90
2023-04-16T19:43:11.443Z,9.90
2023-04-16T19:45:44.842Z,9.90
2023-04-16T19:48:12.169Z,9.90
2023-04-16T19:50:40.551Z,9.90
2023-04-16T19:53:07.986Z,9.90
2023-04-16T19:55:34.702Z,9.80
2023-04-16T19:58:05.997Z,9.80
2023-04-16T20:00:36.746Z,9.70
2023-04-16T20:03:04.927Z,9.70
2023-04-16T20:05:31.995Z,9.70
2023-04-16T20:07:58.614Z,9.60
2023-04-16T20:10:26.311Z,9.50
2023-04-16T20:12:53.251Z,9.50
2023-04-16T20:15:20.223Z,9.50
2023-04-16T20:17:47.078Z,9.50
2023-04-16T20:20:15.759Z,9.40
2023-04-16T20:22:43.447Z,9.40
2023-04-16T20:25:10.397Z,9.40
2023-04-16T20:27:37.076Z,9.40
2023-04-16T20:30:05.345Z,9.40
2023-04-16T20:32:31.991Z,9.40
2023-04-16T20:34:58.686Z,9.40
2023-04-16T20:37:25.312Z,9.30
2023-04-16T20:39:53.957Z,9.20
2023-04-16T20:42:22.624Z,9.20
2023-04-16T20:44:50.434Z,9.20
2023-04-16T20:47:17.254Z,9.20
2023-04-16T20:49:47.311Z,9.20
2023-04-16T20:52:14.309Z,9.20
2023-04-16T20:54:40.972Z,9.10
2023-04-16T20:57:08.053Z,9.10
2023-04-16T20:59:36.111Z,9.10
2023-04-16T21:02:02.891Z,9.10
2023-04-16T21:04:29.677Z,9.10
2023-04-16T21:06:56.487Z,9.00
2023-04-16T21:09:23.544Z,9.00
2023-04-16T21:11:50.157Z,8.90
2023-04-16T21:14:16.747Z,8.90
2023-04-16T21:16:43.414Z,8.90
2023-04-16T21:19:10.226Z,9.00
2023-04-16T21:21:38.174Z,9.00
2023-04-16T21:24:05.029Z,8.90
2023-04-16T21:26:31.753Z,9.00
2023-04-16T21:28:58.371Z,8.90
2023-04-16T21:31:25.009Z,8.90
2023-04-16T21:33:51.668Z,8.80
2023-04-16T21:36:18.300Z,8.80
2023-04-16T21:38:44.929Z,8.70
2023-04-16T21:41:11.533Z,8.60
2023-04-16T21:43:38.203Z,8.60
2023-04-16T21:46:04.952Z,8.50
2023-04-16T21:48:31.584Z,8.50
2023-04-16T21:50:59.979Z,8.50
2023-04-16T21:53:31.827Z,8.50
2023-04-16T21:55:58.807Z,8.50
2023-04-16T21:58:25.796Z,8.50
2023-04-16T22:00:52.838Z,8.50
2023-04-16T22:03:19.785Z,8.50
2023-04-16T22:05:46.573Z,8.50
2023-04-16T22:08:24.206Z,8.50
2023-04-16T22:10:51.478Z,8.50
2023-04-16T22:13:18.263Z,8.50
2023-04-16T22:15:44.895Z,8.50
2023-04-16T22:18:11.572Z,8.50
2023-04-16T22:20:38.971Z,8.50
2023-04-16T22:23:06.699Z,8.40
2023-04-16T22:25:33.714Z,8.40
2023-04-16T22:28:01.409Z,8.40
2023-04-16T22:30:28.137Z,8.40
2023-04-16T22:32:55.070Z,8.40
2023-04-16T22:35:21.820Z,8.40
2023-04-16T22:37:48.455Z,8.40
2023-04-16T22:40:15.871Z,8.40
2023-04-16T22:42:42.599Z,8.40
2023-04-16T22:45:09.614Z,8.40
2023-04-16T22:47:36.314Z,8.40
2023-04-16T22:50:03.233Z,8.30
2023-04-16T22:52:29.945Z,8.30
2023-04-16T22:54:56.546Z,8.30
2023-04-16T22:57:25.529Z,8.30
2023-04-16T22:59:52.916Z,8.20
2023-04-16T23:02:20.573Z,8.30
2023-04-16T23:04:47.909Z,8.30
2023-04-16T23:07:15.469Z,8.30
2023-04-16T23:09:42.581Z,8.40
2023-04-16T23:12:09.261Z,8.40
2023-04-16T23:14:36.794Z,8.40
2023-04-16T23:17:03.646Z,8.40
2023-04-16T23:19:31.057Z,8.40
2023-04-16T23:21:57.800Z,8.40
2023-04-16T23:24:24.479Z,8.40
2023-04-16T23:26:52.403Z,8.30
2023-04-16T23:29:19.896Z,8.40
2023-04-16T23:31:46.525Z,8.50
2023-04-16T23:34:13.193Z,8.40
2023-04-16T23:36:40.622Z,8.40
2023-04-16T23:39:07.296Z,8.40
2023-04-16T23:41:34.279Z,8.50
2023-04-16T23:44:00.933Z,8.50
2023-04-16T23:46:27.587Z,8.40
2023-04-16T23:48:55.251Z,8.40
2023-04-16T23:51:22.118Z,8.40
2023-04-16T23:53:48.766Z,8.30
2023-04-16T23:56:16.041Z,8.30
2023-04-16T23:58:42.664Z,8.30
